createdAt,value
2018-05-13T00:00:33.422Z,0
2018-05-13T00:01:33.142Z,0
2018-05-13T00:02:33.398Z,0
2018-05-13T00:03:33.203Z,0
2018-05-13T00:04:33.373Z,0
2018-05-13T00:05:33.098Z,0
2018-05-13T00:06:33.357Z,0
2018-05-13T00:07:33.354Z,0
2018-05-13T00:08:33.325Z,0
2018-05-13T00:09:33.525Z,0
2018-05-13T00:10:33.040Z,0
2018-05-13T00:11:33.308Z,0
2018-05-13T00:12:33.287Z,0
2018-05-13T00:13:33.272Z,0
2018-05-13T00:14:33.524Z,0
2018-05-13T00:15:32.989Z,0
2018-05-13T00:16:33.497Z,0
2018-05-13T00:17:32.694Z,0
2018-05-13T00:18:33.485Z,0
2018-05-13T00:19:32.941Z,0
2018-05-13T00:20:33.189Z,0
2018-05-13T00:21:32.920Z,0
2018-05-13T00:22:33.176Z,0
2018-05-13T00:23:32.895Z,0
2018-05-13T00:24:32.890Z,0
2018-05-13T00:25:33.133Z,0
2018-05-13T00:26:32.858Z,0
2018-05-13T00:27:32.848Z,0
2018-05-13T00:28:33.102Z,0
2018-05-13T00:29:32.829Z,0
2018-05-13T00:30:33.092Z,0
2018-05-13T00:31:33.066Z,0
2018-05-13T00:32:32.796Z,0
2018-05-13T00:33:33.042Z,0
2018-05-13T00:34:32.765Z,0
2018-05-13T00:35:32.763Z,0
2018-05-13T00:36:32.745Z,0
2018-05-13T00:37:32.787Z,0
2018-05-13T00:38:33.257Z,0
2018-05-13T00:39:32.975Z,0
2018-05-13T00:40:32.970Z,0
2018-05-13T00:41:33.219Z,0
2018-05-13T00:42:32.952Z,0
2018-05-13T00:43:32.407Z,0
2018-05-13T00:44:32.662Z,0
2018-05-13T00:45:32.917Z,0
2018-05-13T00:46:32.909Z,0
2018-05-13T00:47:32.889Z,0
2018-05-13T00:48:32.882Z,0
2018-05-13T00:49:32.865Z,0
2018-05-13T00:50:32.877Z,0
2018-05-13T00:51:32.837Z,0
2018-05-13T00:52:32.562Z,0
2018-05-13T00:53:32.826Z,0
2018-05-13T00:54:32.281Z,0
2018-05-13T00:55:33.066Z,0
2018-05-13T00:56:32.794Z,0
2018-05-13T00:57:32.504Z,0
2018-05-13T00:58:33.028Z,0
2018-05-13T00:59:33.017Z,0
2018-05-13T01:00:33.007Z,0
2018-05-13T01:01:32.992Z,0
2018-05-13T01:02:32.453Z,0
2018-05-13T01:03:32.437Z,0
2018-05-13T01:04:32.693Z,0
2018-05-13T01:05:32.677Z,0
2018-05-13T01:06:32.402Z,0
2018-05-13T01:07:32.395Z,0
2018-05-13T01:08:32.113Z,0
2018-05-13T01:09:32.653Z,0
2018-05-13T01:10:32.361Z,0
2018-05-13T01:11:32.343Z,0
2018-05-13T01:12:32.333Z,0
2018-05-13T01:13:32.588Z,0
2018-05-13T01:14:32.570Z,0
2018-05-13T01:15:32.300Z,0
2018-05-13T01:16:32.814Z,0
2018-05-13T01:17:32.541Z,0
2018-05-13T01:18:32.797Z,0
2018-05-13T01:19:32.871Z,0
2018-05-13T01:20:32.529Z,0
2018-05-13T01:21:32.512Z,0
2018-05-13T01:22:32.756Z,0
2018-05-13T01:23:32.472Z,0
2018-05-13T01:24:32.462Z,0
2018-05-13T01:25:32.448Z,0
2018-05-13T01:26:32.433Z,0
2018-05-13T01:27:32.429Z,0
2018-05-13T01:28:32.147Z,0
2018-05-13T01:29:32.133Z,0
2018-05-13T01:30:32.137Z,0
2018-05-13T01:31:32.653Z,0
2018-05-13T01:32:32.362Z,0
2018-05-13T01:33:32.357Z,0
2018-05-13T01:34:32.391Z,0
2018-05-13T01:35:32.322Z,0
2018-05-13T01:36:32.061Z,0
2018-05-13T01:37:32.040Z,0
2018-05-13T01:38:32.030Z,0
2018-05-13T01:39:32.283Z,0
2018-05-13T01:40:32.281Z,0
2018-05-13T01:41:32.263Z,0
2018-05-13T01:42:32.241Z,0
2018-05-13T01:43:31.984Z,0
2018-05-13T01:44:32.373Z,0
2018-05-13T01:45:31.699Z,0
2018-05-13T01:46:32.201Z,0
2018-05-13T01:47:32.454Z,0
2018-05-13T01:48:31.915Z,0
2018-05-13T01:49:32.168Z,0
2018-05-13T01:50:31.887Z,0
2018-05-13T01:51:32.410Z,0
2018-05-13T01:52:32.403Z,0
2018-05-13T01:53:31.857Z,0
2018-05-13T01:54:32.365Z,0
2018-05-13T01:55:31.836Z,0
2018-05-13T01:56:32.348Z,0
2018-05-13T01:57:32.338Z,0
2018-05-13T01:58:32.069Z,0
2018-05-13T01:59:31.785Z,0
2018-05-13T02:00:32.035Z,0
2018-05-13T02:01:32.024Z,0
2018-05-13T02:02:32.018Z,0
2018-05-13T02:03:32.002Z,0
2018-05-13T02:04:32.090Z,0
2018-05-13T02:05:31.980Z,0
2018-05-13T02:06:32.245Z,0
2018-05-13T02:07:32.218Z,0
2018-05-13T02:08:31.689Z,0
2018-05-13T02:09:32.076Z,0
2018-05-13T02:10:31.937Z,0
2018-05-13T02:11:31.914Z,0
2018-05-13T02:12:31.633Z,0
2018-05-13T02:13:32.161Z,0
2018-05-13T02:14:31.620Z,0
2018-05-13T02:15:31.604Z,0
2018-05-13T02:16:31.863Z,0
2018-05-13T02:17:31.841Z,0
2018-05-13T02:18:31.579Z,0
2018-05-13T02:19:31.554Z,0
2018-05-13T02:20:31.539Z,0
2018-05-13T02:21:31.799Z,0
2018-05-13T02:22:32.066Z,0
2018-05-13T02:23:31.779Z,0
2018-05-13T02:24:31.504Z,0
2018-05-13T02:25:31.751Z,0
2018-05-13T02:26:31.477Z,0
2018-05-13T02:27:31.462Z,0
2018-05-13T02:28:31.986Z,0
2018-05-13T02:29:31.720Z,0
2018-05-13T02:30:31.435Z,0
2018-05-13T02:31:31.159Z,0
2018-05-13T02:32:31.934Z,0
2018-05-13T02:33:31.397Z,0
2018-05-13T02:34:31.664Z,0
2018-05-13T02:35:31.370Z,0
2018-05-13T02:36:31.375Z,0
2018-05-13T02:37:31.350Z,0
2018-05-13T02:38:31.353Z,0
2018-05-13T02:39:31.850Z,0
2018-05-13T02:40:31.861Z,0
2018-05-13T02:41:31.644Z,0
2018-05-13T02:42:31.559Z,0
2018-05-13T02:43:31.556Z,0
2018-05-13T02:44:31.794Z,0
2018-05-13T02:45:31.263Z,0
2018-05-13T02:46:31.530Z,0
2018-05-13T02:47:31.517Z,0
2018-05-13T02:48:31.751Z,0
2018-05-13T02:49:31.736Z,0
2018-05-13T02:50:31.729Z,0
2018-05-13T02:51:31.714Z,0
2018-05-13T02:52:31.453Z,0
2018-05-13T02:53:31.170Z,0
2018-05-13T02:54:31.152Z,0
2018-05-13T02:55:31.155Z,0
2018-05-13T02:56:31.158Z,0
2018-05-13T02:57:31.401Z,0
2018-05-13T02:58:31.373Z,0
2018-05-13T02:59:31.371Z,0
2018-05-13T03:00:31.092Z,0
2018-05-13T03:01:30.810Z,0
2018-05-13T03:02:31.407Z,0
2018-05-13T03:03:30.797Z,0
2018-05-13T03:04:31.042Z,0
2018-05-13T03:05:31.030Z,0
2018-05-13T03:06:31.561Z,0
2018-05-13T03:07:31.567Z,0
2018-05-13T03:08:30.992Z,0
2018-05-13T03:09:31.536Z,0
2018-05-13T03:10:30.981Z,0
2018-05-13T03:11:30.964Z,0
2018-05-13T03:12:31.215Z,4
2018-05-13T03:13:31.207Z,4
2018-05-13T03:14:31.196Z,4
2018-05-13T03:15:31.204Z,4
2018-05-13T03:16:30.912Z,4
2018-05-13T03:17:31.157Z,0
2018-05-13T03:18:31.143Z,4
2018-05-13T03:19:31.135Z,4
2018-05-13T03:20:31.125Z,4
2018-05-13T03:21:31.130Z,4
2018-05-13T03:22:31.100Z,4
2018-05-13T03:23:31.088Z,4
2018-05-13T03:24:31.350Z,8
2018-05-13T03:25:31.332Z,8
2018-05-13T03:26:31.402Z,12
2018-05-13T03:27:30.780Z,16
2018-05-13T03:28:31.042Z,20
2018-05-13T03:29:30.757Z,20
2018-05-13T03:30:31.285Z,24
2018-05-13T03:31:30.468Z,28
2018-05-13T03:32:30.723Z,32
2018-05-13T03:33:30.708Z,40
2018-05-13T03:34:31.229Z,48
2018-05-13T03:35:30.429Z,52
2018-05-13T03:36:31.209Z,64
2018-05-13T03:37:31.191Z,72
2018-05-13T03:38:30.650Z,76
2018-05-13T03:39:30.641Z,88
2018-05-13T03:40:31.165Z,88
2018-05-13T03:41:30.350Z,100
2018-05-13T03:42:30.344Z,104
2018-05-13T03:43:30.867Z,108
2018-05-13T03:44:30.850Z,112
2018-05-13T03:45:31.117Z,116
2018-05-13T03:46:30.827Z,124
2018-05-13T03:47:30.816Z,136
2018-05-13T03:48:30.280Z,144
2018-05-13T03:49:30.820Z,156
2018-05-13T03:50:31.051Z,168
2018-05-13T03:51:30.774Z,180
2018-05-13T03:52:30.755Z,192
2018-05-13T03:53:30.762Z,200
2018-05-13T03:54:30.480Z,216
2018-05-13T03:55:30.462Z,228
2018-05-13T03:56:30.719Z,244
2018-05-13T03:57:30.736Z,260
2018-05-13T03:58:30.957Z,280
2018-05-13T03:59:30.954Z,296
2018-05-13T04:00:30.440Z,316
2018-05-13T04:01:30.660Z,336
2018-05-13T04:02:30.918Z,360
2018-05-13T04:03:30.640Z,376
2018-05-13T04:04:30.363Z,396
2018-05-13T04:05:30.883Z,420
2018-05-13T04:06:30.865Z,440
2018-05-13T04:07:30.103Z,460
2018-05-13T04:08:30.584Z,484
2018-05-13T04:09:30.574Z,508
2018-05-13T04:10:30.295Z,532
2018-05-13T04:11:30.806Z,552
2018-05-13T04:12:30.539Z,580
2018-05-13T04:13:30.523Z,608
2018-05-13T04:14:30.505Z,640
2018-05-13T04:15:30.494Z,680
2018-05-13T04:16:30.759Z,708
2018-05-13T04:17:30.233Z,744
2018-05-13T04:18:30.202Z,784
2018-05-13T04:19:30.465Z,824
2018-05-13T04:20:30.702Z,868
2018-05-13T04:21:30.434Z,904
2018-05-13T04:22:30.151Z,956
2018-05-13T04:23:29.887Z,992
2018-05-13T04:24:30.666Z,1024
2018-05-13T04:25:30.655Z,1052
2018-05-13T04:26:30.652Z,1080
2018-05-13T04:27:30.632Z,1124
2018-05-13T04:28:30.612Z,1188
2018-05-13T04:29:30.334Z,1260
2018-05-13T04:30:30.063Z,1348
2018-05-13T04:31:30.057Z,1380
2018-05-13T04:32:30.313Z,1396
2018-05-13T04:33:30.028Z,1408
2018-05-13T04:34:30.290Z,1436
2018-05-13T04:35:30.000Z,1504
2018-05-13T04:36:30.526Z,1580
2018-05-13T04:37:29.979Z,1660
2018-05-13T04:38:30.233Z,1724
2018-05-13T04:39:30.227Z,1740
2018-05-13T04:40:30.214Z,1752
2018-05-13T04:41:30.455Z,1748
2018-05-13T04:42:30.467Z,1740
2018-05-13T04:43:30.187Z,1744
2018-05-13T04:44:29.894Z,1760
2018-05-13T04:45:30.472Z,1788
2018-05-13T04:46:30.403Z,1792
2018-05-13T04:47:30.397Z,1752
2018-05-13T04:48:30.117Z,1756
2018-05-13T04:49:29.574Z,1792
2018-05-13T04:50:30.301Z,1864
2018-05-13T04:51:30.085Z,1960
2018-05-13T04:52:30.391Z,2104
2018-05-13T04:53:29.803Z,2252
2018-05-13T04:54:29.797Z,2332
2018-05-13T04:55:30.560Z,2352
2018-05-13T04:56:30.037Z,2380
2018-05-13T04:57:30.296Z,2392
2018-05-13T04:58:29.747Z,2392
2018-05-13T04:59:30.293Z,2424
2018-05-13T05:00:29.993Z,2456
2018-05-13T05:01:30.241Z,2480
2018-05-13T05:02:29.980Z,2488
2018-05-13T05:03:30.245Z,2472
2018-05-13T05:04:30.362Z,2464
2018-05-13T05:05:29.933Z,2464
2018-05-13T05:06:29.911Z,2472
2018-05-13T05:07:30.162Z,2496
2018-05-13T05:08:30.101Z,2504
2018-05-13T05:09:29.697Z,2484
2018-05-13T05:10:29.608Z,2500
2018-05-13T05:11:29.857Z,2572
2018-05-13T05:12:30.115Z,2604
2018-05-13T05:13:29.570Z,2620
2018-05-13T05:14:29.560Z,2628
2018-05-13T05:15:29.819Z,2596
2018-05-13T05:16:29.270Z,2564
2018-05-13T05:17:29.791Z,2512
2018-05-13T05:18:30.042Z,2492
2018-05-13T05:19:29.789Z,2496
2018-05-13T05:20:29.496Z,2500
2018-05-13T05:21:29.483Z,2516
2018-05-13T05:22:29.465Z,2520
2018-05-13T05:23:29.988Z,2496
2018-05-13T05:24:29.722Z,2464
2018-05-13T05:25:29.972Z,2432
2018-05-13T05:26:29.163Z,2412
2018-05-13T05:27:29.694Z,2368
2018-05-13T05:28:29.677Z,2284
2018-05-13T05:29:29.938Z,2244
2018-05-13T05:30:29.911Z,2260
2018-05-13T05:31:29.376Z,2264
2018-05-13T05:32:29.099Z,2216
2018-05-13T05:33:29.615Z,2144
2018-05-13T05:34:29.079Z,2132
2018-05-13T05:35:29.600Z,2164
2018-05-13T05:36:29.052Z,2164
2018-05-13T05:37:29.048Z,2128
2018-05-13T05:38:29.829Z,2100
2018-05-13T05:39:29.819Z,2120
2018-05-13T05:40:29.281Z,2188
2018-05-13T05:41:29.617Z,2268
2018-05-13T05:42:29.255Z,2376
2018-05-13T05:43:29.514Z,2504
2018-05-13T05:44:29.504Z,2628
2018-05-13T05:45:29.493Z,2716
2018-05-13T05:46:29.213Z,2744
2018-05-13T05:47:29.470Z,2796
2018-05-13T05:48:29.268Z,2844
2018-05-13T05:49:29.188Z,2908
2018-05-13T05:50:28.904Z,2940
2018-05-13T05:51:29.163Z,2976
2018-05-13T05:52:28.882Z,2992
2018-05-13T05:53:29.668Z,3012
2018-05-13T05:54:29.390Z,3048
2018-05-13T05:55:29.385Z,3148
2018-05-13T05:56:29.114Z,3284
2018-05-13T05:57:28.826Z,3352
2018-05-13T05:58:29.358Z,3320
2018-05-13T05:59:29.356Z,3360
2018-05-13T06:00:29.098Z,3624
2018-05-13T06:01:29.055Z,4068
2018-05-13T06:02:29.581Z,4412
2018-05-13T06:03:29.030Z,4724
2018-05-13T06:04:29.549Z,5020
2018-05-13T06:05:29.021Z,5276
2018-05-13T06:06:29.267Z,5532
2018-05-13T06:07:29.522Z,5864
2018-05-13T06:08:28.984Z,6136
2018-05-13T06:09:28.969Z,6240
2018-05-13T06:10:29.168Z,6204
2018-05-13T06:11:29.025Z,6048
2018-05-13T06:12:29.314Z,5972
2018-05-13T06:13:29.199Z,5916
2018-05-13T06:14:28.931Z,5880
2018-05-13T06:15:28.910Z,5852
2018-05-13T06:16:29.175Z,5908
2018-05-13T06:17:28.891Z,5924
2018-05-13T06:18:29.155Z,5960
2018-05-13T06:19:28.612Z,6008
2018-05-13T06:20:29.399Z,6064
2018-05-13T06:21:28.857Z,6144
2018-05-13T06:22:28.845Z,6152
2018-05-13T06:23:29.099Z,6112
2018-05-13T06:24:29.089Z,6088
2018-05-13T06:25:29.089Z,6032
2018-05-13T06:26:29.068Z,5988
2018-05-13T06:27:29.065Z,5948
2018-05-13T06:28:29.325Z,5956
2018-05-13T06:29:29.043Z,5960
2018-05-13T06:30:29.289Z,5960
2018-05-13T06:31:28.975Z,5968
2018-05-13T06:32:28.744Z,5948
2018-05-13T06:33:28.999Z,5896
2018-05-13T06:34:28.736Z,5872
2018-05-13T06:35:28.986Z,5832
2018-05-13T06:36:28.449Z,5800
2018-05-13T06:37:28.969Z,5736
2018-05-13T06:38:28.984Z,5732
2018-05-13T06:39:29.212Z,5728
2018-05-13T06:40:28.932Z,5696
2018-05-13T06:41:28.663Z,5688
2018-05-13T06:42:28.678Z,5688
2018-05-13T06:43:28.671Z,5732
2018-05-13T06:44:28.928Z,5736
2018-05-13T06:45:28.636Z,5772
2018-05-13T06:46:28.908Z,5772
2018-05-13T06:47:29.136Z,5732
2018-05-13T06:48:28.875Z,5796
2018-05-13T06:49:28.918Z,5768
2018-05-13T06:50:28.854Z,5688
2018-05-13T06:51:28.838Z,5636
2018-05-13T06:52:29.103Z,5556
2018-05-13T06:53:28.569Z,5532
2018-05-13T06:54:28.556Z,5496
2018-05-13T06:55:28.546Z,5460
2018-05-13T06:56:29.070Z,5416
2018-05-13T06:57:28.856Z,5120
2018-05-13T06:58:28.518Z,4980
2018-05-13T06:59:29.049Z,4916
2018-05-13T07:00:28.773Z,5056
2018-05-13T07:01:29.029Z,5128
2018-05-13T07:02:28.479Z,5052
2018-05-13T07:03:28.238Z,5100
2018-05-13T07:04:28.495Z,5304
2018-05-13T07:05:28.982Z,5464
2018-05-13T07:06:28.722Z,5512
2018-05-13T07:07:28.694Z,5536
2018-05-13T07:08:28.428Z,5612
2018-05-13T07:09:28.466Z,5712
2018-05-13T07:10:28.920Z,5760
2018-05-13T07:11:28.952Z,5788
2018-05-13T07:12:28.689Z,5820
2018-05-13T07:13:28.746Z,5800
2018-05-13T07:14:28.898Z,5820
2018-05-13T07:15:28.374Z,5884
2018-05-13T07:16:28.812Z,5832
2018-05-13T07:17:28.347Z,5772
2018-05-13T07:18:28.079Z,5764
2018-05-13T07:19:28.596Z,5872
2018-05-13T07:20:28.619Z,5972
2018-05-13T07:21:28.577Z,6044
2018-05-13T07:22:29.048Z,6092
2018-05-13T07:23:28.297Z,6104
2018-05-13T07:24:28.584Z,6600
2018-05-13T07:25:28.821Z,14848
2018-05-13T07:26:28.798Z,25568
2018-05-13T07:27:28.526Z,25152
2018-05-13T07:28:28.261Z,26816
2018-05-13T07:29:28.782Z,25408
2018-05-13T07:30:28.501Z,21344
2018-05-13T07:31:27.963Z,20576
2018-05-13T07:32:28.746Z,21600
2018-05-13T07:33:27.953Z,23456
2018-05-13T07:34:28.216Z,25760
2018-05-13T07:35:27.940Z,26432
2018-05-13T07:36:28.724Z,28512
2018-05-13T07:37:27.928Z,29440
2018-05-13T07:38:28.448Z,28576
2018-05-13T07:39:27.913Z,27424
2018-05-13T07:40:28.179Z,24448
2018-05-13T07:41:28.701Z,23712
2018-05-13T07:42:28.168Z,25504
2018-05-13T07:43:28.666Z,26016
2018-05-13T07:44:28.422Z,28128
2018-05-13T07:45:28.677Z,29024
2018-05-13T07:46:28.403Z,30080
2018-05-13T07:47:28.677Z,29984
2018-05-13T07:48:28.408Z,30432
2018-05-13T07:49:28.145Z,33600
2018-05-13T07:50:28.654Z,36320
2018-05-13T07:51:28.123Z,37056
2018-05-13T07:52:28.123Z,33888
2018-05-13T07:53:28.380Z,31040
2018-05-13T07:54:28.669Z,30624
2018-05-13T07:55:28.113Z,29888
2018-05-13T07:56:28.372Z,30176
2018-05-13T07:57:28.102Z,28832
2018-05-13T07:58:28.633Z,30080
2018-05-13T07:59:28.417Z,33920
2018-05-13T08:00:28.095Z,35168
2018-05-13T08:01:28.359Z,34880
2018-05-13T08:02:28.353Z,35232
2018-05-13T08:03:28.097Z,35296
2018-05-13T08:04:28.621Z,34784
2018-05-13T08:05:28.076Z,32992
2018-05-13T08:06:28.616Z,29920
2018-05-13T08:07:28.081Z,29792
2018-05-13T08:08:27.807Z,30528
2018-05-13T08:09:27.807Z,31392
2018-05-13T08:10:28.330Z,31712
2018-05-13T08:11:28.332Z,33280
2018-05-13T08:12:28.063Z,34464
2018-05-13T08:13:28.333Z,35104
2018-05-13T08:14:27.793Z,32928
2018-05-13T08:15:27.797Z,30048
2018-05-13T08:16:28.124Z,30688
2018-05-13T08:17:28.059Z,32800
2018-05-13T08:18:28.319Z,35584
2018-05-13T08:19:28.325Z,39072
2018-05-13T08:20:29.021Z,42912
2018-05-13T08:21:28.592Z,44768
2018-05-13T08:22:28.318Z,32320
2018-05-13T08:23:28.321Z,19744
2018-05-13T08:24:28.321Z,17120
2018-05-13T08:25:27.783Z,18176
2018-05-13T08:26:28.054Z,13640
2018-05-13T08:27:28.567Z,14296
2018-05-13T08:28:28.043Z,14336
2018-05-13T08:29:27.776Z,23584
2018-05-13T08:30:28.321Z,29248
2018-05-13T08:31:28.049Z,33152
2018-05-13T08:32:28.302Z,28096
2018-05-13T08:33:27.770Z,28832
2018-05-13T08:34:28.562Z,25632
2018-05-13T08:35:28.568Z,17152
2018-05-13T08:36:28.557Z,12904
2018-05-13T08:37:28.560Z,13336
2018-05-13T08:38:28.305Z,12868
2018-05-13T08:39:28.288Z,13752
2018-05-13T08:40:28.219Z,13140
2018-05-13T08:41:28.016Z,12840
2018-05-13T08:42:28.280Z,11724
2018-05-13T08:43:28.532Z,12068
2018-05-13T08:44:28.268Z,12796
2018-05-13T08:45:28.533Z,13224
2018-05-13T08:46:28.017Z,14564
2018-05-13T08:47:28.267Z,15916
2018-05-13T08:48:27.753Z,17120
2018-05-13T08:49:28.000Z,17344
2018-05-13T08:50:27.987Z,16864
2018-05-13T08:51:28.247Z,18720
2018-05-13T08:52:27.973Z,17280
2018-05-13T08:53:28.515Z,14896
2018-05-13T08:54:27.708Z,14856
2018-05-13T08:55:28.234Z,15024
2018-05-13T08:56:27.964Z,15048
2018-05-13T08:57:28.221Z,13864
2018-05-13T08:58:27.962Z,12784
2018-05-13T08:59:28.486Z,12824
2018-05-13T09:00:27.940Z,11200
2018-05-13T09:01:28.207Z,9852
2018-05-13T09:02:28.471Z,9748
2018-05-13T09:03:28.199Z,10288
2018-05-13T09:04:28.211Z,9780
2018-05-13T09:05:27.927Z,10060
2018-05-13T09:06:28.193Z,9640
2018-05-13T09:07:27.912Z,10604
2018-05-13T09:08:28.494Z,10352
2018-05-13T09:09:27.906Z,10944
2018-05-13T09:10:28.162Z,12896
2018-05-13T09:11:28.449Z,14516
2018-05-13T09:12:28.157Z,14308
2018-05-13T09:13:28.632Z,15340
2018-05-13T09:14:28.013Z,16616
2018-05-13T09:15:27.880Z,15372
2018-05-13T09:16:27.896Z,17016
2018-05-13T09:17:28.139Z,17248
2018-05-13T09:18:28.398Z,16488
2018-05-13T09:19:27.867Z,18016
2018-05-13T09:20:28.124Z,15900
2018-05-13T09:21:28.328Z,15788
2018-05-13T09:22:28.101Z,15432
2018-05-13T09:23:28.111Z,14220
2018-05-13T09:24:28.363Z,12904
2018-05-13T09:25:28.093Z,13440
2018-05-13T09:26:28.148Z,12656
2018-05-13T09:27:27.826Z,11748
2018-05-13T09:28:27.852Z,11632
2018-05-13T09:29:27.823Z,11108
2018-05-13T09:30:28.348Z,10864
2018-05-13T09:31:27.945Z,10860
2018-05-13T09:32:28.332Z,10860
2018-05-13T09:33:28.067Z,11452
2018-05-13T09:34:27.785Z,11856
2018-05-13T09:35:28.097Z,12344
2018-05-13T09:36:28.035Z,12284
2018-05-13T09:37:28.035Z,12084
2018-05-13T09:38:28.254Z,11520
2018-05-13T09:39:28.086Z,10644
2018-05-13T09:40:28.024Z,11452
2018-05-13T09:41:28.027Z,12116
2018-05-13T09:42:27.748Z,12072
2018-05-13T09:43:27.496Z,11964
2018-05-13T09:44:27.737Z,11856
2018-05-13T09:45:27.455Z,11800
2018-05-13T09:46:27.986Z,11732
2018-05-13T09:47:28.251Z,11816
2018-05-13T09:48:27.998Z,12204
2018-05-13T09:49:27.708Z,12228
2018-05-13T09:50:28.241Z,18368
2018-05-13T09:51:28.634Z,12828
2018-05-13T09:52:27.959Z,11920
2018-05-13T09:53:27.949Z,12884
2018-05-13T09:54:28.257Z,13124
2018-05-13T09:55:27.946Z,14472
2018-05-13T09:56:27.933Z,16836
2018-05-13T09:57:27.942Z,13108
2018-05-13T09:58:27.934Z,15312
2018-05-13T09:59:27.925Z,13748
2018-05-13T10:00:28.187Z,13816
2018-05-13T10:01:28.175Z,13428
2018-05-13T10:02:28.169Z,14184
2018-05-13T10:03:27.626Z,13612
2018-05-13T10:04:27.662Z,13592
2018-05-13T10:05:28.150Z,13916
2018-05-13T10:06:28.151Z,15324
2018-05-13T10:07:27.611Z,13852
2018-05-13T10:08:28.135Z,16128
2018-05-13T10:09:28.044Z,14368
2018-05-13T10:10:27.341Z,14592
2018-05-13T10:11:28.131Z,14024
2018-05-13T10:12:27.623Z,14764
2018-05-13T10:13:27.312Z,15588
2018-05-13T10:14:27.913Z,15232
2018-05-13T10:15:28.109Z,16580
2018-05-13T10:16:27.843Z,17140
2018-05-13T10:17:27.832Z,17136
2018-05-13T10:18:27.863Z,22048
2018-05-13T10:19:27.701Z,61664
2018-05-13T10:20:27.564Z,42400
2018-05-13T10:21:27.560Z,77728
2018-05-13T10:22:28.083Z,74176
2018-05-13T10:23:27.801Z,69792
2018-05-13T10:24:27.567Z,63168
2018-05-13T10:25:27.796Z,58912
2018-05-13T10:26:27.282Z,54880
2018-05-13T10:27:27.905Z,54080
2018-05-13T10:28:27.816Z,56832
2018-05-13T10:29:27.813Z,58368
2018-05-13T10:30:27.254Z,58976
2018-05-13T10:31:27.792Z,17000
2018-05-13T10:32:27.533Z,17792
2018-05-13T10:33:27.795Z,58624
2018-05-13T10:34:27.785Z,67680
2018-05-13T10:35:27.261Z,67328
2018-05-13T10:36:28.416Z,72000
2018-05-13T10:37:28.003Z,36320
2018-05-13T10:38:28.055Z,47648
2018-05-13T10:39:28.065Z,37920
2018-05-13T10:40:28.065Z,17536
2018-05-13T10:41:27.985Z,28000
2018-05-13T10:42:27.884Z,27488
2018-05-13T10:43:27.528Z,24256
2018-05-13T10:44:27.803Z,18144
2018-05-13T10:45:27.526Z,19680
2018-05-13T10:46:27.531Z,22240
2018-05-13T10:47:27.834Z,34336
2018-05-13T10:48:28.079Z,26240
2018-05-13T10:49:27.515Z,35712
2018-05-13T10:50:27.787Z,16160
2018-05-13T10:51:27.516Z,15592
2018-05-13T10:52:27.782Z,18624
2018-05-13T10:53:27.578Z,31872
2018-05-13T10:54:27.843Z,19648
2018-05-13T10:55:27.522Z,26944
2018-05-13T10:56:28.039Z,15660
2018-05-13T10:57:27.778Z,14040
2018-05-13T10:58:28.047Z,13576
2018-05-13T10:59:27.506Z,14440
2018-05-13T11:00:28.066Z,14972
2018-05-13T11:01:27.255Z,16736
2018-05-13T11:02:28.022Z,24960
2018-05-13T11:03:28.030Z,50208
2018-05-13T11:04:28.077Z,53632
2018-05-13T11:05:27.760Z,45024
2018-05-13T11:06:27.230Z,19616
2018-05-13T11:07:27.535Z,13256
2018-05-13T11:08:28.016Z,11636
2018-05-13T11:09:27.488Z,10520
2018-05-13T11:10:27.868Z,8992
2018-05-13T11:11:27.705Z,8304
2018-05-13T11:12:27.737Z,8460
2018-05-13T11:13:27.510Z,9792
2018-05-13T11:14:27.977Z,14368
2018-05-13T11:15:27.465Z,29952
2018-05-13T11:16:27.726Z,16928
2018-05-13T11:17:27.754Z,16896
2018-05-13T11:18:27.717Z,24416
2018-05-13T11:19:27.708Z,15184
2018-05-13T11:20:27.995Z,13172
2018-05-13T11:21:27.719Z,10672
2018-05-13T11:22:27.710Z,9744
2018-05-13T11:23:27.424Z,10580
2018-05-13T11:24:27.756Z,12796
2018-05-13T11:25:27.441Z,22784
2018-05-13T11:26:27.678Z,27136
2018-05-13T11:27:27.674Z,16160
2018-05-13T11:28:27.676Z,18528
2018-05-13T11:29:27.425Z,11972
2018-05-13T11:30:27.928Z,9980
2018-05-13T11:31:27.647Z,9236
2018-05-13T11:32:27.382Z,9028
2018-05-13T11:33:28.113Z,9872
2018-05-13T11:34:27.666Z,12376
2018-05-13T11:35:27.651Z,15224
2018-05-13T11:36:27.626Z,30912
2018-05-13T11:37:27.615Z,25440
2018-05-13T11:38:27.888Z,18464
2018-05-13T11:39:27.646Z,19232
2018-05-13T11:40:27.880Z,22976
2018-05-13T11:41:27.389Z,20608
2018-05-13T11:42:27.600Z,18752
2018-05-13T11:43:27.320Z,13832
2018-05-13T11:44:27.587Z,16448
2018-05-13T11:45:27.580Z,25184
2018-05-13T11:46:27.581Z,22816
2018-05-13T11:47:27.574Z,24704
2018-05-13T11:48:27.820Z,21568
2018-05-13T11:49:27.580Z,19808
2018-05-13T11:50:27.761Z,19328
2018-05-13T11:51:27.545Z,18976
2018-05-13T11:52:27.822Z,20096
2018-05-13T11:53:27.280Z,19200
2018-05-13T11:54:27.276Z,18848
2018-05-13T11:55:27.803Z,23552
2018-05-13T11:56:27.336Z,27616
2018-05-13T11:57:27.252Z,28288
2018-05-13T11:58:27.788Z,29984
2018-05-13T11:59:27.777Z,32640
2018-05-13T12:00:27.783Z,34080
2018-05-13T12:01:27.236Z,31136
2018-05-13T12:02:27.931Z,28704
2018-05-13T12:03:27.498Z,19936
2018-05-13T12:04:27.510Z,24544
2018-05-13T12:05:27.481Z,21824
2018-05-13T12:06:27.496Z,18752
2018-05-13T12:07:27.739Z,19680
2018-05-13T12:08:27.493Z,16672
2018-05-13T12:09:27.733Z,15004
2018-05-13T12:10:27.654Z,14188
2018-05-13T12:11:27.819Z,13516
2018-05-13T12:12:27.441Z,13000
2018-05-13T12:13:27.430Z,13196
2018-05-13T12:14:27.441Z,12340
2018-05-13T12:15:27.753Z,11944
2018-05-13T12:16:26.907Z,11204
2018-05-13T12:17:27.411Z,10908
2018-05-13T12:18:27.452Z,10468
2018-05-13T12:19:27.438Z,10232
2018-05-13T12:20:27.156Z,10056
2018-05-13T12:21:27.406Z,10072
2018-05-13T12:22:26.858Z,10020
2018-05-13T12:23:27.410Z,9940
2018-05-13T12:24:26.845Z,9972
2018-05-13T12:25:27.101Z,10284
2018-05-13T12:26:27.362Z,10460
2018-05-13T12:27:27.631Z,10620
2018-05-13T12:28:27.194Z,10732
2018-05-13T12:29:27.376Z,10624
2018-05-13T12:30:27.638Z,10504
2018-05-13T12:31:27.397Z,10280
2018-05-13T12:32:27.056Z,9440
2018-05-13T12:33:27.587Z,8072
2018-05-13T12:34:27.575Z,5668
2018-05-13T12:35:27.048Z,4168
2018-05-13T12:36:27.027Z,3876
2018-05-13T12:37:27.285Z,4276
2018-05-13T12:38:27.285Z,4604
2018-05-13T12:39:27.007Z,4408
2018-05-13T12:40:27.524Z,3516
2018-05-13T12:41:27.251Z,2516
2018-05-13T12:42:27.248Z,2080
2018-05-13T12:43:26.972Z,1880
2018-05-13T12:44:27.242Z,1984
2018-05-13T12:45:27.219Z,2428
2018-05-13T12:46:27.481Z,3184
2018-05-13T12:47:26.945Z,3868
2018-05-13T12:48:27.192Z,4928
2018-05-13T12:49:26.918Z,5632
2018-05-13T12:50:27.444Z,6224
2018-05-13T12:51:27.316Z,6584
2018-05-13T12:52:26.666Z,6612
2018-05-13T12:53:27.413Z,6316
2018-05-13T12:54:26.876Z,6180
2018-05-13T12:55:27.129Z,6600
2018-05-13T12:56:27.286Z,7340
2018-05-13T12:57:27.118Z,7876
2018-05-13T12:58:26.956Z,7384
2018-05-13T12:59:27.109Z,7852
2018-05-13T13:00:27.099Z,8296
2018-05-13T13:01:26.808Z,8068
2018-05-13T13:02:27.366Z,7956
2018-05-13T13:03:27.323Z,7400
2018-05-13T13:04:27.045Z,7680
2018-05-13T13:05:26.779Z,9748
2018-05-13T13:06:27.323Z,12724
2018-05-13T13:07:26.752Z,11180
2018-05-13T13:08:27.012Z,10780
2018-05-13T13:09:26.795Z,9736
2018-05-13T13:10:26.985Z,9164
2018-05-13T13:11:26.994Z,8636
2018-05-13T13:12:26.714Z,8532
2018-05-13T13:13:26.970Z,7524
2018-05-13T13:14:26.945Z,7080
2018-05-13T13:15:26.684Z,6944
2018-05-13T13:16:26.397Z,6724
2018-05-13T13:17:26.925Z,6356
2018-05-13T13:18:27.179Z,6176
2018-05-13T13:19:26.901Z,6128
2018-05-13T13:20:26.899Z,6288
2018-05-13T13:21:26.883Z,6332
2018-05-13T13:22:26.879Z,6380
2018-05-13T13:23:26.909Z,6216
2018-05-13T13:24:26.887Z,5836
2018-05-13T13:25:27.108Z,5376
2018-05-13T13:26:26.573Z,4952
2018-05-13T13:27:27.135Z,4540
2018-05-13T13:28:26.821Z,4072
2018-05-13T13:29:26.844Z,3728
2018-05-13T13:30:26.647Z,3552
2018-05-13T13:31:26.797Z,3328